CheckWX is a tool to help pilots better visualize weather data.  It is not intended as a substitute for an official pre-flight weather briefing.

17:00:50 UTC

HKMO METAR
Mombasa Moi International Airport
Mombasa, Kenya
Current

1 hour ago

HKMO 261600Z 18004KT 9999 FEW022 SCT080 27/24 Q1014 NOSIG
Observed
May-26 @ 16:00 UTC
Wind
  • 180° at 4 KTS
Visibility
10,000+ meters
Flight Rules
VFR
Cloud Levels
  • Few at 2,200' AGL
  • Scattered at 8,000' AGL
Temperature
27°C / 81°F
Dewpoint
24°C / 75°F
Humidity
84%
Altimeter
29.94" Hg
Pressure
1013.92 hPa
Previous

2 hours ago

HKMO 261500Z 19005KT 9999 FEW023 BKN080 27/23 Q1014 NOSIG
Observed
May-26 @ 15:00 UTC
Wind
  • 190° at 5 KTS
Visibility
10,000+ meters
Flight Rules
VFR
Cloud Levels
  • Few at 2,300' AGL
  • Broken at 8,000' AGL
Temperature
27°C / 81°F
Dewpoint
23°C / 73°F
Humidity
79%
Altimeter
29.94" Hg
Pressure
1013.92 hPa
Previous

3 hours ago

HKMO 261400Z 20007KT 9999 FEW023 SCT090 28/23 Q1014 NOSIG
Observed
May-26 @ 14:00 UTC
Wind
  • 200° at 7 KTS
Visibility
10,000+ meters
Flight Rules
VFR
Cloud Levels
  • Few at 2,300' AGL
  • Scattered at 9,000' AGL
Temperature
28°C / 82°F
Dewpoint
23°C / 73°F
Humidity
74%
Altimeter
29.94" Hg
Pressure
1013.92 hPa